createdAt,value
2018-02-16T00:01:25.618Z,8.55
2018-02-16T00:03:53.169Z,8.63
2018-02-16T00:06:20.646Z,5.78
2018-02-16T00:08:48.133Z,9.77
2018-02-16T00:11:15.618Z,5.40
2018-02-16T00:13:43.107Z,5.50
2018-02-16T00:16:10.635Z,5.45
2018-02-16T00:18:38.121Z,6.43
2018-02-16T00:21:05.775Z,5.22
2018-02-16T00:23:33.340Z,5.40
2018-02-16T00:26:00.850Z,5.22
2018-02-16T00:28:28.332Z,5.43
2018-02-16T00:30:55.834Z,5.25
2018-02-16T00:33:23.318Z,6.05
2018-02-16T00:35:50.799Z,6.93
2018-02-16T00:38:20.332Z,5.00
2018-02-16T00:40:47.894Z,5.40
2018-02-16T00:43:15.994Z,4.78
2018-02-16T00:45:43.480Z,4.80
2018-02-16T00:48:10.974Z,3.58
2018-02-16T00:50:38.497Z,3.08
2018-02-16T00:53:05.982Z,3.50
2018-02-16T00:55:33.457Z,3.12
2018-02-16T00:58:01.018Z,3.05
2018-02-16T01:00:28.498Z,2.78
2018-02-16T01:02:57.942Z,5.53
2018-02-16T01:05:25.431Z,2.80
2018-02-16T01:07:52.901Z,2.28
2018-02-16T01:10:20.388Z,10.45
2018-02-16T01:12:47.874Z,3.10
2018-02-16T01:15:15.374Z,5.03
2018-02-16T01:17:42.877Z,3.00
2018-02-16T01:20:10.370Z,2.87
2018-02-16T01:22:37.849Z,2.95
2018-02-16T01:25:05.534Z,2.60
2018-02-16T01:27:33.054Z,3.15
2018-02-16T01:30:00.546Z,12.18
2018-02-16T01:32:28.026Z,7.93
2018-02-16T01:34:55.514Z,2.28
2018-02-16T01:37:22.998Z,4.25
2018-02-16T01:39:50.492Z,3.53
2018-02-16T01:42:17.965Z,2.60
2018-02-16T01:44:45.460Z,8.10
2018-02-16T01:47:12.937Z,2.15
2018-02-16T01:49:58.134Z,2.60
2018-02-16T01:52:25.663Z,3.37
2018-02-16T01:54:53.167Z,2.80
2018-02-16T01:57:20.663Z,3.40
2018-02-16T01:59:48.146Z,4.28
2018-02-16T02:02:15.698Z,4.35
2018-02-16T02:04:43.295Z,4.55
2018-02-16T02:07:10.778Z,6.70
2018-02-16T02:09:38.266Z,7.15
2018-02-16T02:12:05.779Z,7.85
2018-02-16T02:14:33.260Z,6.90
2018-02-16T02:17:00.762Z,7.10
2018-02-16T02:19:28.284Z,6.40
2018-02-16T02:21:56.130Z,7.75
2018-02-16T02:24:23.630Z,8.23
2018-02-16T02:26:51.114Z,8.05
2018-02-16T02:29:19.242Z,7.82
2018-02-16T02:31:46.731Z,8.18
2018-02-16T02:34:14.213Z,8.93
2018-02-16T02:36:41.730Z,11.23
2018-02-16T02:39:09.215Z,8.25
2018-02-16T02:41:36.735Z,8.93
2018-02-16T02:44:04.226Z,10.43
2018-02-16T02:46:31.780Z,7.32
2018-02-16T02:48:59.262Z,7.97
2018-02-16T02:51:26.753Z,6.18
2018-02-16T02:53:54.962Z,10.10
2018-02-16T02:56:22.443Z,6.15
2018-02-16T02:58:49.982Z,6.45
2018-02-16T03:01:17.463Z,5.05
2018-02-16T03:03:44.949Z,6.65
2018-02-16T03:06:12.434Z,6.97
2018-02-16T03:08:40.018Z,8.20
2018-02-16T03:11:07.565Z,6.00
2018-02-16T03:13:35.049Z,7.93
2018-02-16T03:16:02.534Z,5.78
2018-02-16T03:18:30.035Z,6.65
2018-02-16T03:20:57.518Z,7.07
2018-02-16T03:23:25.022Z,8.50
2018-02-16T03:25:52.501Z,6.20
2018-02-16T03:28:19.992Z,6.72
2018-02-16T03:30:47.474Z,7.50
2018-02-16T03:33:14.974Z,7.00
2018-02-16T03:35:42.583Z,6.95
2018-02-16T03:38:10.077Z,5.82
2018-02-16T03:40:37.561Z,6.62
2018-02-16T03:43:06.369Z,6.87
2018-02-16T03:45:33.861Z,5.25
2018-02-16T03:48:01.361Z,7.00
2018-02-16T03:50:28.943Z,6.32
2018-02-16T03:52:56.426Z,6.35
2018-02-16T03:55:23.908Z,6.87
2018-02-16T03:57:51.406Z,5.30
2018-02-16T04:00:19.952Z,8.70
2018-02-16T04:02:47.560Z,4.90
2018-02-16T04:05:15.041Z,6.32
2018-02-16T04:07:42.565Z,7.70
2018-02-16T04:10:10.046Z,7.12
2018-02-16T04:12:37.545Z,7.03
2018-02-16T04:15:05.058Z,5.50
2018-02-16T04:17:32.541Z,9.60
2018-02-16T04:20:00.038Z,6.37
2018-02-16T04:22:27.529Z,6.70
2018-02-16T04:24:55.035Z,5.75
2018-02-16T04:27:22.527Z,6.53
2018-02-16T04:29:50.103Z,6.43
2018-02-16T04:32:17.590Z,7.37
2018-02-16T04:34:46.002Z,6.65
2018-02-16T04:37:13.702Z,7.40
2018-02-16T04:39:41.186Z,6.78
2018-02-16T04:42:08.684Z,8.88
2018-02-16T04:44:36.183Z,8.02
2018-02-16T04:47:03.671Z,8.00
2018-02-16T04:49:31.293Z,5.87
2018-02-16T04:51:58.798Z,5.93
2018-02-16T04:54:26.281Z,8.82
2018-02-16T04:56:53.771Z,9.27
2018-02-16T04:59:21.250Z,8.50
2018-02-16T05:01:48.749Z,7.65
2018-02-16T05:04:16.249Z,11.35
2018-02-16T05:06:43.742Z,10.95
2018-02-16T05:09:11.225Z,8.50
2018-02-16T05:11:38.721Z,11.63
2018-02-16T05:14:06.249Z,10.15
2018-02-16T05:16:33.730Z,9.80
2018-02-16T05:19:02.174Z,11.70
2018-02-16T05:21:29.662Z,11.05
2018-02-16T05:23:57.175Z,13.75
2018-02-16T05:26:24.684Z,6.20
2018-02-16T05:28:52.169Z,8.10
2018-02-16T05:31:19.658Z,10.55
2018-02-16T05:33:47.169Z,12.90
2018-02-16T05:36:15.017Z,5.97
2018-02-16T05:38:42.511Z,10.65
2018-02-16T05:41:09.998Z,10.35
2018-02-16T05:43:37.493Z,11.30
2018-02-16T05:46:05.061Z,7.55
2018-02-16T05:48:32.537Z,7.12
2018-02-16T05:51:00.019Z,6.30
2018-02-16T05:53:27.534Z,5.70
2018-02-16T05:55:55.018Z,5.68
2018-02-16T05:58:22.505Z,4.55
2018-02-16T06:00:49.997Z,5.87
2018-02-16T06:03:17.481Z,3.22
2018-02-16T06:05:44.993Z,4.85
2018-02-16T06:08:12.586Z,5.87
2018-02-16T06:10:40.069Z,3.58
2018-02-16T06:13:07.553Z,3.15
2018-02-16T06:15:35.033Z,4.32
2018-02-16T06:18:02.551Z,3.28
2018-02-16T06:20:30.037Z,6.80
2018-02-16T06:22:57.637Z,3.75
2018-02-16T06:25:25.109Z,3.00
2018-02-16T06:27:52.584Z,3.53
2018-02-16T06:30:20.088Z,5.75
2018-02-16T06:32:47.570Z,3.95
2018-02-16T06:35:15.793Z,2.45
2018-02-16T06:37:43.269Z,3.08
2018-02-16T06:40:10.747Z,2.03
2018-02-16T06:42:38.261Z,2.62
2018-02-16T06:45:05.746Z,3.12
2018-02-16T06:47:33.258Z,3.25
2018-02-16T06:50:00.738Z,2.65
2018-02-16T06:52:28.224Z,1.80
2018-02-16T06:54:55.717Z,2.42
2018-02-16T06:57:23.193Z,2.03
2018-02-16T06:59:50.665Z,1.70
2018-02-16T07:02:18.154Z,4.12
2018-02-16T07:04:45.638Z,2.65
2018-02-16T07:07:14.149Z,1.40
2018-02-16T07:09:41.625Z,1.30
2018-02-16T07:12:09.134Z,1.30
2018-02-16T07:14:36.620Z,1.00
2018-02-16T07:17:04.089Z,0.80
2018-02-16T07:19:32.607Z,0.80
2018-02-16T07:22:00.096Z,0.77
2018-02-16T07:24:27.657Z,0.80
2018-02-16T07:26:55.216Z,0.88
2018-02-16T07:29:22.694Z,1.27
2018-02-16T07:31:51.205Z,1.75
2018-02-16T07:34:19.739Z,0.70
2018-02-16T07:36:48.157Z,0.75
2018-02-16T07:39:15.621Z,0.50
2018-02-16T07:41:43.123Z,0.80
2018-02-16T07:44:10.626Z,2.25
2018-02-16T07:46:38.106Z,1.02
2018-02-16T07:49:05.573Z,0.80
2018-02-16T07:51:33.046Z,0.60
2018-02-16T07:54:00.750Z,0.73
2018-02-16T07:56:29.277Z,1.12
2018-02-16T07:58:56.764Z,0.90
2018-02-16T08:01:24.230Z,0.77
2018-02-16T08:03:51.697Z,0.80
2018-02-16T08:06:19.172Z,1.20
2018-02-16T08:08:46.662Z,1.00
2018-02-16T08:11:14.136Z,1.70
2018-02-16T08:13:41.614Z,1.70
2018-02-16T08:16:09.085Z,1.70
2018-02-16T08:18:36.564Z,1.17
2018-02-16T08:21:03.872Z,0.80
2018-02-16T08:23:31.343Z,0.80
2018-02-16T08:25:58.834Z,0.70
2018-02-16T08:28:26.314Z,0.95
2018-02-16T08:30:53.786Z,0.68
2018-02-16T08:33:21.281Z,0.73
2018-02-16T08:35:48.753Z,0.82
2018-02-16T08:38:16.240Z,0.80
2018-02-16T08:40:43.707Z,0.70
2018-02-16T08:43:11.177Z,0.75
2018-02-16T08:45:38.666Z,0.70
2018-02-16T08:48:06.143Z,1.15
2018-02-16T08:50:33.614Z,0.60
2018-02-16T08:53:01.079Z,0.88
2018-02-16T08:55:28.546Z,0.70
2018-02-16T08:57:56.043Z,0.70
2018-02-16T09:00:23.518Z,0.75
2018-02-16T09:02:50.989Z,1.75
2018-02-16T09:05:18.466Z,2.60
2018-02-16T09:07:45.934Z,0.60
2018-02-16T09:10:13.423Z,0.88
2018-02-16T09:12:40.893Z,0.65
2018-02-16T09:15:09.105Z,0.85
2018-02-16T09:17:36.396Z,0.77
2018-02-16T09:20:03.881Z,0.70
2018-02-16T09:22:31.373Z,0.60
2018-02-16T09:24:58.845Z,0.60
2018-02-16T09:27:26.318Z,0.40
2018-02-16T09:29:54.326Z,1.10
2018-02-16T09:32:22.747Z,0.50
2018-02-16T09:34:50.241Z,0.50
2018-02-16T09:37:18.645Z,0.55
2018-02-16T09:39:46.666Z,0.65
2018-02-16T09:42:14.142Z,2.33
2018-02-16T09:44:41.625Z,2.45
2018-02-16T09:47:09.123Z,2.00
2018-02-16T09:49:36.598Z,1.00
2018-02-16T09:52:04.126Z,4.80
2018-02-16T09:54:31.647Z,3.28
2018-02-16T09:56:59.294Z,0.82
2018-02-16T09:59:26.769Z,0.55
2018-02-16T10:01:54.074Z,1.65
2018-02-16T10:04:21.546Z,0.60
2018-02-16T10:06:49.799Z,1.62
2018-02-16T10:09:17.483Z,1.30
2018-02-16T10:11:45.224Z,0.80
2018-02-16T10:14:12.693Z,2.28
2018-02-16T10:16:40.192Z,2.75
2018-02-16T10:19:07.670Z,1.50
2018-02-16T10:21:35.166Z,0.70
2018-02-16T10:24:02.650Z,0.60
2018-02-16T10:26:30.145Z,0.60
2018-02-16T10:28:57.619Z,0.57
2018-02-16T10:31:25.701Z,0.70
2018-02-16T10:33:53.170Z,0.60
2018-02-16T10:36:21.810Z,0.90
2018-02-16T10:38:49.279Z,0.85
2018-02-16T10:41:16.760Z,0.73
2018-02-16T10:43:44.248Z,2.28
2018-02-16T10:46:11.724Z,0.60
2018-02-16T10:48:39.214Z,0.70
2018-02-16T10:51:06.696Z,0.82
2018-02-16T10:53:34.166Z,0.60
2018-02-16T10:56:01.641Z,0.90
2018-02-16T10:58:29.154Z,2.17
2018-02-16T11:01:02.306Z,0.80
2018-02-16T11:03:35.290Z,0.85
2018-02-16T11:06:02.600Z,1.10
2018-02-16T11:08:35.511Z,3.50
2018-02-16T11:11:02.994Z,6.10
2018-02-16T11:13:30.302Z,12.18
2018-02-16T11:15:57.782Z,3.37
2018-02-16T11:18:25.312Z,1.60
2018-02-16T11:20:52.939Z,1.00
2018-02-16T11:23:20.413Z,1.30
2018-02-16T11:25:47.898Z,1.65
2018-02-16T11:28:15.370Z,0.90
2018-02-16T11:30:43.657Z,1.60
2018-02-16T11:33:11.152Z,0.70
2018-02-16T11:35:38.642Z,2.90
2018-02-16T11:38:06.137Z,1.27
2018-02-16T11:40:33.618Z,1.85
2018-02-16T11:43:01.098Z,1.30
2018-02-16T11:45:28.410Z,0.80
2018-02-16T11:47:56.051Z,0.80
2018-02-16T11:50:23.542Z,0.80
2018-02-16T11:52:51.018Z,0.80
2018-02-16T11:55:18.489Z,0.82
2018-02-16T11:57:46.901Z,0.60
2018-02-16T12:00:14.378Z,0.95
2018-02-16T12:02:41.873Z,0.68
2018-02-16T12:05:09.432Z,0.60
2018-02-16T12:07:37.865Z,0.62
2018-02-16T12:10:06.311Z,0.65
2018-02-16T12:12:33.539Z,0.50
2018-02-16T12:15:01.042Z,0.62
2018-02-16T12:17:28.512Z,0.50
2018-02-16T12:19:55.994Z,1.15
2018-02-16T12:22:23.475Z,0.65
2018-02-16T12:24:50.950Z,0.60
2018-02-16T12:27:18.442Z,0.70
2018-02-16T12:29:45.910Z,0.52
2018-02-16T12:32:13.386Z,0.60
2018-02-16T12:34:40.967Z,0.77
2018-02-16T12:37:08.526Z,0.88
2018-02-16T12:39:36.017Z,0.60
2018-02-16T12:42:03.494Z,0.65
2018-02-16T12:44:30.969Z,0.60
2018-02-16T12:46:58.445Z,0.60
2018-02-16T12:49:26.030Z,0.77
2018-02-16T12:51:53.517Z,1.15
2018-02-16T12:54:20.993Z,1.87
2018-02-16T12:56:48.478Z,5.05
2018-02-16T12:59:15.983Z,1.37
2018-02-16T13:01:43.477Z,1.52
2018-02-16T13:04:10.961Z,5.85
2018-02-16T13:06:38.197Z,0.80
2018-02-16T13:09:05.810Z,0.77
2018-02-16T13:11:33.287Z,1.00
2018-02-16T13:14:01.278Z,1.50
2018-02-16T13:16:28.910Z,0.70
2018-02-16T13:18:56.435Z,1.10
2018-02-16T13:21:24.082Z,0.75
2018-02-16T13:23:51.558Z,0.80
2018-02-16T13:26:19.034Z,1.42
2018-02-16T13:28:47.454Z,2.03
2018-02-16T13:31:15.052Z,4.85
2018-02-16T13:33:42.772Z,2.75
2018-02-16T13:36:10.881Z,1.83
2018-02-16T13:38:38.381Z,2.37
2018-02-16T13:41:05.865Z,1.12
2018-02-16T13:43:33.381Z,0.90
2018-02-16T13:46:00.858Z,1.00
2018-02-16T13:48:28.364Z,1.02
2018-02-16T13:50:55.838Z,1.27
2018-02-16T13:53:23.337Z,1.20
2018-02-16T13:55:50.814Z,1.02
2018-02-16T13:58:18.307Z,0.73
2018-02-16T14:00:45.781Z,0.82
2018-02-16T14:03:13.295Z,0.77
2018-02-16T14:05:40.762Z,0.65
2018-02-16T14:08:09.187Z,0.80
2018-02-16T14:10:36.658Z,1.00
2018-02-16T14:13:04.150Z,1.77
2018-02-16T14:15:31.613Z,0.80
2018-02-16T14:17:59.091Z,1.10
2018-02-16T14:20:26.583Z,0.90
2018-02-16T14:22:54.076Z,1.55
2018-02-16T14:25:21.581Z,0.82
2018-02-16T14:27:49.057Z,0.90
2018-02-16T14:30:16.549Z,0.93
2018-02-16T14:32:44.048Z,0.85
2018-02-16T14:35:11.713Z,1.15
2018-02-16T14:37:39.213Z,0.90
2018-02-16T14:40:06.727Z,1.10
2018-02-16T14:42:34.209Z,1.67
2018-02-16T14:45:01.733Z,1.20
2018-02-16T14:47:29.393Z,1.20
2018-02-16T14:49:58.833Z,1.73
2018-02-16T14:52:26.327Z,3.95
2018-02-16T14:54:55.770Z,2.30
2018-02-16T14:57:23.248Z,2.17
2018-02-16T14:59:50.752Z,2.00
2018-02-16T15:02:18.235Z,1.70
2018-02-16T15:04:45.710Z,1.77
2018-02-16T15:07:13.361Z,1.87
2018-02-16T15:09:40.834Z,1.90
2018-02-16T15:12:08.338Z,2.40
2018-02-16T15:14:35.817Z,2.28
2018-02-16T15:17:03.290Z,1.40
2018-02-16T15:19:30.771Z,2.15
2018-02-16T15:21:58.245Z,1.50
2018-02-16T15:24:25.746Z,1.52
2018-02-16T15:26:53.222Z,2.15
2018-02-16T15:29:20.697Z,1.20
2018-02-16T15:31:48.211Z,5.80
2018-02-16T15:34:15.691Z,2.15
2018-02-16T15:36:43.623Z,3.62
2018-02-16T15:39:11.119Z,2.12
2018-02-16T15:41:38.704Z,2.00
2018-02-16T15:44:06.177Z,2.97
2018-02-16T15:46:33.667Z,2.90
2018-02-16T15:49:03.165Z,2.95
2018-02-16T15:51:30.646Z,3.87
2018-02-16T15:53:58.133Z,3.67
2018-02-16T15:56:25.629Z,3.58
2018-02-16T15:58:53.106Z,3.00
2018-02-16T16:01:20.971Z,4.53
2018-02-16T16:03:48.445Z,4.57
2018-02-16T16:06:15.925Z,3.50
2018-02-16T16:08:43.414Z,3.37
2018-02-16T16:11:11.854Z,3.87
2018-02-16T16:13:39.369Z,3.45
2018-02-16T16:16:06.874Z,3.78
2018-02-16T16:18:34.372Z,3.70
2018-02-16T16:21:01.865Z,3.92
2018-02-16T16:23:29.351Z,4.55
2018-02-16T16:25:56.851Z,4.32
2018-02-16T16:28:24.334Z,5.97
2018-02-16T16:30:51.822Z,6.25
2018-02-16T16:33:19.301Z,6.50
2018-02-16T16:35:46.781Z,8.57
2018-02-16T16:38:15.286Z,7.87
2018-02-16T16:40:42.769Z,9.10
2018-02-16T16:43:10.257Z,9.80
2018-02-16T16:45:37.732Z,8.85
2018-02-16T16:48:05.213Z,8.93
2018-02-16T16:50:32.717Z,16.00
2018-02-16T16:53:00.723Z,9.23
2018-02-16T16:55:28.214Z,11.88
2018-02-16T16:57:55.694Z,9.20
2018-02-16T17:00:23.214Z,10.90
2018-02-16T17:02:50.718Z,9.20
2018-02-16T17:05:18.206Z,9.10
2018-02-16T17:07:45.702Z,13.38
2018-02-16T17:10:13.197Z,9.43
2018-02-16T17:12:40.702Z,12.27
2018-02-16T17:15:08.213Z,18.87
2018-02-16T17:17:35.715Z,50.97
2018-02-16T17:20:03.213Z,19.25
2018-02-16T17:22:30.741Z,17.65
2018-02-16T17:24:58.246Z,16.48
2018-02-16T17:27:25.749Z,17.73
2018-02-16T17:29:53.241Z,19.08
2018-02-16T17:32:20.830Z,19.25
2018-02-16T17:34:48.346Z,22.95
2018-02-16T17:37:15.855Z,21.80
2018-02-16T17:39:43.216Z,15.27
2018-02-16T17:42:10.861Z,11.75
2018-02-16T17:44:38.353Z,15.63
2018-02-16T17:47:05.872Z,15.65
2018-02-16T17:49:34.304Z,14.35
2018-02-16T17:52:01.806Z,14.43
2018-02-16T17:54:29.297Z,14.50
2018-02-16T17:56:56.795Z,18.42
2018-02-16T17:59:24.297Z,14.38
2018-02-16T18:01:51.778Z,13.00
2018-02-16T18:04:19.276Z,13.70
2018-02-16T18:06:46.770Z,14.30
2018-02-16T18:09:14.261Z,15.82
2018-02-16T18:11:41.765Z,16.70
2018-02-16T18:14:09.263Z,15.23
2018-02-16T18:16:36.741Z,17.33
2018-02-16T18:19:04.230Z,15.77
2018-02-16T18:21:31.812Z,22.87
2018-02-16T18:23:59.329Z,27.00
2018-02-16T18:26:27.338Z,17.60
2018-02-16T18:28:54.831Z,32.40
2018-02-16T18:31:23.280Z,40.88
2018-02-16T18:33:50.770Z,35.78
2018-02-16T18:36:20.213Z,20.23
2018-02-16T18:38:47.717Z,18.17
2018-02-16T18:41:15.210Z,18.27
2018-02-16T18:43:42.706Z,22.55
2018-02-16T18:46:10.293Z,14.75
2018-02-16T18:48:37.815Z,11.70
2018-02-16T18:51:05.307Z,14.02
2018-02-16T18:53:32.796Z,16.58
2018-02-16T18:56:00.292Z,12.73
2018-02-16T18:58:27.784Z,18.77
2018-02-16T19:00:55.294Z,14.35
2018-02-16T19:03:22.801Z,36.78
2018-02-16T19:05:50.285Z,43.22
2018-02-16T19:08:17.778Z,62.90
2018-02-16T19:10:45.273Z,159.63
2018-02-16T19:13:12.766Z,12.35
2018-02-16T19:15:43.030Z,8.23
2018-02-16T19:18:10.530Z,120.97
2018-02-16T19:20:38.039Z,149.70
2018-02-16T19:23:05.541Z,210.93
2018-02-16T19:25:33.036Z,92.25
2018-02-16T19:28:00.546Z,108.03
2018-02-16T19:30:28.058Z,300.98
2018-02-16T19:32:55.570Z,364.85
2018-02-16T19:35:23.078Z,250.57
2018-02-16T19:37:50.597Z,72.57
2018-02-16T19:40:18.093Z,188.05
2018-02-16T19:42:45.617Z,252.23
2018-02-16T19:45:13.913Z,230.40
2018-02-16T19:47:41.417Z,184.32
2018-02-16T19:50:08.923Z,156.15
2018-02-16T19:52:36.437Z,30.60
2018-02-16T19:55:03.952Z,106.28
2018-02-16T19:57:31.884Z,76.62
2018-02-16T19:59:59.382Z,30.88
2018-02-16T20:02:26.885Z,34.65
2018-02-16T20:04:57.751Z,89.68
2018-02-16T20:07:25.273Z,59.63
2018-02-16T20:09:52.770Z,31.42
2018-02-16T20:12:20.259Z,82.12
2018-02-16T20:14:47.767Z,226.70
2018-02-16T20:17:15.269Z,237.80
2018-02-16T20:19:42.888Z,180.15
2018-02-16T20:22:10.400Z,169.50
2018-02-16T20:24:37.899Z,99.90
2018-02-16T20:27:05.394Z,110.22
2018-02-16T20:29:32.874Z,49.58
2018-02-16T20:32:00.401Z,80.32
2018-02-16T20:34:27.905Z,106.80
2018-02-16T20:36:55.398Z,75.35
2018-02-16T20:39:22.894Z,74.03
2018-02-16T20:41:50.399Z,36.85
2018-02-16T20:44:17.918Z,81.28
2018-02-16T20:46:45.423Z,53.60
2018-02-16T20:49:12.930Z,58.08
2018-02-16T20:51:40.444Z,121.37
2018-02-16T20:54:07.973Z,138.77
2018-02-16T20:56:35.490Z,100.05
2018-02-16T20:59:02.978Z,85.70
2018-02-16T21:01:30.286Z,58.80
2018-02-16T21:03:57.790Z,42.05
2018-02-16T21:06:25.097Z,35.28
2018-02-16T21:08:52.430Z,44.70
2018-02-16T21:11:19.930Z,146.43
2018-02-16T21:13:47.429Z,74.60
2018-02-16T21:16:14.926Z,55.63
2018-02-16T21:18:42.425Z,36.25
2018-02-16T21:21:09.941Z,30.83
2018-02-16T21:23:37.455Z,30.58
2018-02-16T21:26:04.962Z,32.85
2018-02-16T21:28:32.457Z,34.92
2018-02-16T21:30:59.960Z,32.08
2018-02-16T21:33:27.938Z,31.00
2018-02-16T21:35:55.257Z,24.90
2018-02-16T21:38:22.560Z,28.98
2018-02-16T21:40:50.073Z,25.52
2018-02-16T21:43:17.575Z,25.12
2018-02-16T21:45:45.090Z,25.75
2018-02-16T21:48:12.619Z,28.83
2018-02-16T21:50:40.268Z,26.98
2018-02-16T21:53:07.773Z,23.30
2018-02-16T21:55:35.258Z,25.48
2018-02-16T21:58:02.776Z,25.60
2018-02-16T22:00:30.270Z,18.67
2018-02-16T22:02:58.500Z,32.30
2018-02-16T22:05:26.927Z,46.35
2018-02-16T22:07:54.418Z,53.67
2018-02-16T22:10:21.949Z,44.03
2018-02-16T22:12:49.479Z,37.97
2018-02-16T22:15:18.063Z,59.67
2018-02-16T22:17:45.548Z,84.13
2018-02-16T22:20:13.050Z,100.05
2018-02-16T22:22:40.561Z,104.70
2018-02-16T22:25:08.062Z,145.57
2018-02-16T22:27:35.572Z,44.75
2018-02-16T22:30:03.130Z,160.50
2018-02-16T22:32:30.634Z,103.18
2018-02-16T22:34:58.154Z,42.78
2018-02-16T22:37:25.658Z,156.23
2018-02-16T22:39:53.170Z,169.77
2018-02-16T22:42:20.682Z,143.65
2018-02-16T22:44:48.189Z,145.52
2018-02-16T22:47:15.709Z,58.25
2018-02-16T22:49:43.205Z,248.23
2018-02-16T22:52:10.706Z,58.95
2018-02-16T22:54:38.226Z,126.00
2018-02-16T22:57:05.748Z,115.35
2018-02-16T22:59:33.794Z,111.28
2018-02-16T23:02:04.209Z,40.80
2018-02-16T23:04:46.526Z,44.90
2018-02-16T23:07:16.281Z,32.92
2018-02-16T23:09:43.806Z,45.63
2018-02-16T23:12:15.056Z,36.15
2018-02-16T23:14:46.009Z,30.92
2018-02-16T23:17:18.989Z,24.35
2018-02-16T23:19:48.543Z,18.95
2018-02-16T23:25:08.674Z,18.10
2018-02-16T23:27:36.170Z,22.23
2018-02-16T23:32:42.910Z,20.23
2018-02-16T23:37:50.598Z,22.42
2018-02-16T23:43:01.796Z,17.10
2018-02-16T23:45:29.312Z,21.25
2018-02-16T23:47:58.847Z,15.70
2018-02-16T23:50:27.189Z,14.82
2018-02-16T23:52:58.006Z,16.92
2018-02-16T23:55:25.580Z,18.37
2018-02-16T23:57:56.109Z,14.82
